sensor_id;sensor_type;location;lat;lon;timestamp;P1;durP1;ratioP1;P2;durP2;ratioP2
58756;SDS011;44527;47.460;19.016;2023-09-19T00:01:14;16.98;;;5.30;;
58756;SDS011;44527;47.460;19.016;2023-09-19T00:04:17;20.05;;;5.28;;
58756;SDS011;44527;47.460;19.016;2023-09-19T00:07:21;11.52;;;5.28;;
58756;SDS011;44527;47.460;19.016;2023-09-19T00:10:25;10.35;;;4.30;;
58756;SDS011;44527;47.460;19.016;2023-09-19T00:13:29;12.77;;;4.97;;
58756;SDS011;44527;47.460;19.016;2023-09-19T00:16:33;10.95;;;4.97;;
58756;SDS011;44527;47.460;19.016;2023-09-19T00:19:35;10.52;;;4.70;;
58756;SDS011;44527;47.460;19.016;2023-09-19T00:22:41;9.95;;;4.70;;
58756;SDS011;44527;47.460;19.016;2023-09-19T00:25:44;15.45;;;5.28;;
58756;SDS011;44527;47.460;19.016;2023-09-19T00:28:47;14.68;;;5.62;;
58756;SDS011;44527;47.460;19.016;2023-09-19T00:31:50;8.25;;;5.10;;
58756;SDS011;44527;47.460;19.016;2023-09-19T00:34:52;13.95;;;4.95;;
58756;SDS011;44527;47.460;19.016;2023-09-19T00:37:55;11.38;;;4.90;;
58756;SDS011;44527;47.460;19.016;2023-09-19T00:40:57;13.20;;;5.15;;
58756;SDS011;44527;47.460;19.016;2023-09-19T00:44:04;12.75;;;5.28;;
58756;SDS011;44527;47.460;19.016;2023-09-19T00:47:06;14.25;;;5.37;;
58756;SDS011;44527;47.460;19.016;2023-09-19T00:50:11;16.20;;;5.72;;
58756;SDS011;44527;47.460;19.016;2023-09-19T00:53:18;11.15;;;5.40;;
58756;SDS011;44527;47.460;19.016;2023-09-19T00:56:25;14.15;;;5.53;;
58756;SDS011;44527;47.460;19.016;2023-09-19T00:59:29;12.57;;;5.93;;
58756;SDS011;44527;47.460;19.016;2023-09-19T01:02:32;14.68;;;5.93;;
58756;SDS011;44527;47.460;19.016;2023-09-19T01:05:35;14.90;;;5.70;;
58756;SDS011;44527;47.460;19.016;2023-09-19T01:08:38;12.43;;;6.25;;
58756;SDS011;44527;47.460;19.016;2023-09-19T01:11:42;20.30;;;5.43;;
58756;SDS011;44527;47.460;19.016;2023-09-19T01:14:55;23.70;;;5.63;;
58756;SDS011;44527;47.460;19.016;2023-09-19T01:21:36;10.43;;;5.25;;
58756;SDS011;44527;47.460;19.016;2023-09-19T01:24:55;9.25;;;5.07;;
58756;SDS011;44527;47.460;19.016;2023-09-19T01:31:33;14.48;;;5.70;;
58756;SDS011;44527;47.460;19.016;2023-09-19T01:34:43;16.95;;;5.85;;
58756;SDS011;44527;47.460;19.016;2023-09-19T01:37:52;12.88;;;6.25;;
58756;SDS011;44527;47.460;19.016;2023-09-19T01:41:04;20.67;;;6.20;;
58756;SDS011;44527;47.460;19.016;2023-09-19T01:48:21;10.75;;;5.30;;
58756;SDS011;44527;47.460;19.016;2023-09-19T01:51:45;18.55;;;6.15;;
58756;SDS011;44527;47.460;19.016;2023-09-19T01:55:09;13.32;;;6.25;;
58756;SDS011;44527;47.460;19.016;2023-09-19T01:58:23;11.15;;;6.28;;
58756;SDS011;44527;47.460;19.016;2023-09-19T02:01:36;11.85;;;5.95;;
58756;SDS011;44527;47.460;19.016;2023-09-19T02:04:40;16.50;;;6.47;;
58756;SDS011;44527;47.460;19.016;2023-09-19T02:07:42;13.73;;;6.97;;
58756;SDS011;44527;47.460;19.016;2023-09-19T02:10:45;9.85;;;6.15;;
58756;SDS011;44527;47.460;19.016;2023-09-19T02:13:50;11.80;;;6.65;;
58756;SDS011;44527;47.460;19.016;2023-09-19T02:16:57;18.17;;;6.50;;
58756;SDS011;44527;47.460;19.016;2023-09-19T02:19:59;16.02;;;6.95;;
58756;SDS011;44527;47.460;19.016;2023-09-19T02:23:03;17.20;;;7.03;;
58756;SDS011;44527;47.460;19.016;2023-09-19T02:26:05;16.15;;;6.90;;
58756;SDS011;44527;47.460;19.016;2023-09-19T02:29:08;11.35;;;7.47;;
58756;SDS011;44527;47.460;19.016;2023-09-19T02:32:14;17.60;;;7.20;;
58756;SDS011;44527;47.460;19.016;2023-09-19T02:35:17;13.00;;;6.97;;
58756;SDS011;44527;47.460;19.016;2023-09-19T02:38:22;13.25;;;7.10;;
58756;SDS011;44527;47.460;19.016;2023-09-19T02:41:27;19.60;;;6.97;;
58756;SDS011;44527;47.460;19.016;2023-09-19T02:44:31;14.05;;;8.10;;
58756;SDS011;44527;47.460;19.016;2023-09-19T02:47:34;11.40;;;6.95;;
58756;SDS011;44527;47.460;19.016;2023-09-19T02:50:37;22.45;;;7.95;;
58756;SDS011;44527;47.460;19.016;2023-09-19T02:53:42;13.88;;;7.50;;
58756;SDS011;44527;47.460;19.016;2023-09-19T02:56:44;15.35;;;7.65;;
58756;SDS011;44527;47.460;19.016;2023-09-19T02:59:47;21.02;;;7.60;;
58756;SDS011;44527;47.460;19.016;2023-09-19T03:02:50;15.85;;;7.18;;
58756;SDS011;44527;47.460;19.016;2023-09-19T03:05:56;16.48;;;7.90;;
58756;SDS011;44527;47.460;19.016;2023-09-19T03:09:00;16.92;;;8.27;;
58756;SDS011;44527;47.460;19.016;2023-09-19T03:12:03;14.13;;;7.00;;
58756;SDS011;44527;47.460;19.016;2023-09-19T03:15:07;15.68;;;6.80;;
58756;SDS011;44527;47.460;19.016;2023-09-19T03:18:13;14.93;;;7.50;;
58756;SDS011;44527;47.460;19.016;2023-09-19T03:21:16;19.33;;;6.75;;
58756;SDS011;44527;47.460;19.016;2023-09-19T03:24:23;13.10;;;7.00;;
58756;SDS011;44527;47.460;19.016;2023-09-19T03:27:28;15.85;;;7.75;;
58756;SDS011;44527;47.460;19.016;2023-09-19T03:30:31;10.88;;;7.10;;
58756;SDS011;44527;47.460;19.016;2023-09-19T03:33:37;12.75;;;7.72;;
58756;SDS011;44527;47.460;19.016;2023-09-19T03:36:40;14.25;;;7.65;;
58756;SDS011;44527;47.460;19.016;2023-09-19T03:39:43;16.67;;;8.07;;
58756;SDS011;44527;47.460;19.016;2023-09-19T03:42:47;14.32;;;8.13;;
58756;SDS011;44527;47.460;19.016;2023-09-19T03:45:50;23.30;;;7.47;;
58756;SDS011;44527;47.460;19.016;2023-09-19T03:48:53;24.50;;;8.07;;
58756;SDS011;44527;47.460;19.016;2023-09-19T03:51:58;14.68;;;7.55;;
58756;SDS011;44527;47.460;19.016;2023-09-19T03:55:02;19.83;;;8.30;;
58756;SDS011;44527;47.460;19.016;2023-09-19T03:58:08;14.43;;;7.50;;
58756;SDS011;44527;47.460;19.016;2023-09-19T04:01:11;21.55;;;7.30;;
58756;SDS011;44527;47.460;19.016;2023-09-19T04:04:15;12.55;;;6.80;;
58756;SDS011;44527;47.460;19.016;2023-09-19T04:07:21;12.85;;;6.50;;
58756;SDS011;44527;47.460;19.016;2023-09-19T04:10:26;11.77;;;7.25;;
58756;SDS011;44527;47.460;19.016;2023-09-19T04:13:29;17.08;;;6.75;;
58756;SDS011;44527;47.460;19.016;2023-09-19T04:16:32;12.63;;;7.07;;
58756;SDS011;44527;47.460;19.016;2023-09-19T04:19:35;16.52;;;6.95;;
58756;SDS011;44527;47.460;19.016;2023-09-19T04:22:39;18.90;;;8.13;;
58756;SDS011;44527;47.460;19.016;2023-09-19T04:25:45;16.98;;;7.93;;
58756;SDS011;44527;47.460;19.016;2023-09-19T04:28:49;13.38;;;7.35;;
58756;SDS011;44527;47.460;19.016;2023-09-19T04:31:53;28.12;;;10.48;;
